Aérodrome :
LOGIN :

S'inscrire | Disclaimer

   EN    FR    IT 

 










Légende :    VFR   VFR Marginal   IFR   IFR Intensif   IFR Très Intensif
Visi : 
Plafond : 
>= 8 km
>= 3000ft
5 à 8 km
1000 à 3000 ft
1500m à 5 km
500 à 1000 ft
800 à 1500m
200 à 500 ft
< 800m
< 200 ft
Symboles :   Orages  Brouillard  Fortes neiges  Fortes précipitations  Vent > 20 kt
SIGMETs :   Divers  Orages  Givrage  Turbulence  Onde Orograph.  Cendres Volcan.






- Altitude de l'aérodrome : 580 ft


LFOA - Avord

DERNIER METAR :
  • 071400Z AUTO 23006KT 9999 BKN008 BKN014 OVC023 10/09 Q1020

METARs EXPIRÉS :
  • 071330Z AUTO 25006KT 9999 FEW007 BKN013 BKN023 10/09 Q1020
  • 071300Z AUTO 27006KT 9999 -RA SCT009 BKN015 BKN022 10/09 Q1020
  • 071230Z AUTO 27009KT 9999 BKN010 BKN014 BKN021 11/09 Q1020
  • 071200Z AUTO 26011KT 9999 BKN010 BKN016 OVC038 10/09 Q1021
  • 071130Z AUTO 26010KT 9999 BKN010 OVC015 10/09 Q1020

TAF TAF LFOA
Valide du 07 à 09h jusqu'au 08 à 09h UTC


070800Z 0709/0809 24010KT 9999 OVC006
TEMPO 0709/0712 3000 DZ BKN003
TEMPO 0713/0718 BKN008
BECMG 0803/0805 21015G30KT 3000 DZRA BKN004 OVC010



MET'MAP, la Météo Aéronautique d'un coup d'oeil ! - Copyright ORBIFLY Décembre 2007 - Disclaimer

ORBIFLY MET'MAP TEAM :

Programmation & Développement : Alexandra Zaïnal
Sur une idée originale de : Baudouin d'Aumeries
Assistance à la programmation : Marc-Olivier Méhu
Soutien technique & logistique : Manuel Goepfert

Contact : metmap@orbifly.com




SOURCES & CREDITS :

   NOAA